Time;durP1;ratioP1;P1;durP2;ratioP2;P2;SDS_P1;SDS_P2;PMS_P1;PMS_P2;Temp;Humidity;BMP_temperature;BMP_pressure;BME280_temperature;BME280_humidity;BME280_pressure;Samples;Min_cycle;Max_cycle;Signal;HPM_P1;HPM_P2
2022/10/20 06:56:34;;;;;;;34.80;26.83;;;21.80;99.90;;;;;;6244502;22;20350;-93
2022/10/20 07:09:46;;;;;;;29.42;26.13;;;21.40;99.90;;;;;;6249783;22;20028;-91
2022/10/20 07:39:09;;;;;;;33.60;27.15;;;22.20;99.90;;;;;;6216289;23;20064;-93
2022/10/20 07:41:39;;;;;;;30.30;26.27;;;22.20;99.90;;;;;;6157477;23;20010;-75
2022/10/20 07:44:06;;;;;;;29.27;26.15;;;22.20;99.90;;;;;;6154921;23;20021;-84
2022/10/20 07:46:33;;;;;;;30.77;26.25;;;21.90;99.90;;;;;;6101291;23;20006;-83
2022/10/20 07:48:59;;;;;;;31.33;24.60;;;21.90;99.90;;;;;;6100686;23;20042;-80
2022/10/20 07:51:29;;;;;;;28.02;25.08;;;22.10;99.90;;;;;;6125203;23;20456;-81
2022/10/20 07:54:00;;;;;;;27.27;24.58;;;22.00;99.90;;;;;;6100398;23;20440;-81
2022/10/20 07:56:30;;;;;;;26.52;23.73;;;22.10;99.90;;;;;;6100577;23;20061;-80
2022/10/20 07:58:56;;;;;;;26.38;23.77;;;22.00;99.90;;;;;;6100733;23;20344;-81
2022/10/20 08:01:23;;;;;;;25.98;23.23;;;22.10;99.90;;;;;;6124948;23;20002;-82
2022/10/20 08:03:49;;;;;;;25.00;22.50;;;22.30;99.90;;;;;;6125033;23;20026;-82
2022/10/20 08:06:15;;;;;;;22.85;20.60;;;22.30;99.90;;;;;;6100670;23;20010;-83
2022/10/20 08:08:42;;;;;;;23.27;20.50;;;22.40;99.90;;;;;;6100466;23;20479;-82
2022/10/20 08:11:09;;;;;;;23.77;21.20;;;22.50;99.90;;;;;;6100412;23;20006;-83
2022/10/20 08:13:38;;;;;;;22.75;20.52;;;22.60;99.90;;;;;;6100626;23;20010;-83
2022/10/20 08:16:04;;;;;;;23.85;21.35;;;22.80;99.90;;;;;;6094982;23;20010;-90
2022/10/20 08:18:31;;;;;;;24.75;22.27;;;22.90;99.90;;;;;;6151754;23;20040;-94
2022/10/20 08:21:21;;;;;;;22.88;20.75;;;22.70;99.90;;;;;;6161517;23;20423;-92
2022/10/20 08:23:51;;;;;;;22.65;20.35;;;22.40;99.90;;;;;;6164383;23;20427;-94
2022/10/20 08:26:24;;;;;;;21.95;19.75;;;22.30;99.90;;;;;;6162714;23;20011;-93
2022/10/20 08:28:54;;;;;;;21.85;19.75;;;22.20;99.90;;;;;;6163716;23;20505;-94
2022/10/20 08:31:22;;;;;;;20.55;18.40;;;22.40;99.90;;;;;;6162361;23;20011;-93
2022/10/20 08:33:49;;;;;;;21.77;19.60;;;22.50;99.90;;;;;;6163170;23;20013;-93
2022/10/20 08:36:16;;;;;;;20.98;19.13;;;22.40;99.90;;;;;;6162110;23;20013;-94
2022/10/20 08:38:43;;;;;;;19.98;18.38;;;22.50;99.90;;;;;;6161761;23;20009;-95
2022/10/20 08:41:18;;;;;;;20.73;18.98;;;22.50;99.90;;;;;;6162740;23;20020;-93
2022/10/20 08:43:51;;;;;;;20.98;19.15;;;22.50;99.90;;;;;;6161356;23;20024;-94
2022/10/20 08:46:21;;;;;;;20.73;19.13;;;22.60;99.90;;;;;;6161532;23;20005;-94
2022/10/20 08:48:51;;;;;;;22.00;20.10;;;22.80;99.90;;;;;;6162400;23;20092;-92
2022/10/20 08:51:24;;;;;;;21.42;19.63;;;22.80;99.90;;;;;;6162316;23;20009;-93
2022/10/20 08:53:57;;;;;;;21.90;19.90;;;22.70;99.90;;;;;;6161738;23;20434;-95
2022/10/20 08:56:32;;;;;;;20.90;19.17;;;22.90;99.90;;;;;;6162097;23;20008;-93
2022/10/20 08:58:58;;;;;;;21.40;19.55;;;22.90;99.90;;;;;;6162120;23;20059;-93
2022/10/20 09:01:43;;;;;;;21.25;19.45;;;22.90;99.90;;;;;;6161362;23;20017;-94
2022/10/20 09:04:18;;;;;;;22.75;20.50;;;22.80;99.90;;;;;;6162755;23;20382;-93
2022/10/20 09:06:49;;;;;;;23.00;21.00;;;22.90;99.90;;;;;;6161145;23;20015;-94
2022/10/20 09:09:18;;;;;;;22.95;20.77;;;23.00;99.90;;;;;;6162565;23;20012;-93
2022/10/20 09:11:45;;;;;;;23.50;21.48;;;23.00;99.90;;;;;;6160718;23;20008;-93
2022/10/20 09:14:13;;;;;;;22.98;20.90;;;23.20;99.90;;;;;;6160402;23;20045;-92
2022/10/20 09:16:42;;;;;;;22.65;20.60;;;23.10;99.90;;;;;;6160680;23;20139;-92
2022/10/20 09:19:20;;;;;;;22.75;20.85;;;23.10;99.90;;;;;;6160870;23;20005;-93
2022/10/20 09:21:56;;;;;;;22.98;20.75;;;23.10;99.90;;;;;;6161161;23;20091;-93
2022/10/20 09:24:25;;;;;;;23.77;21.45;;;23.00;99.90;;;;;;6160965;23;20025;-95
2022/10/20 09:26:52;;;;;;;23.70;21.50;;;23.00;99.90;;;;;;6161045;23;20020;-93
2022/10/20 09:29:20;;;;;;;23.38;21.13;;;22.90;99.90;;;;;;6160599;23;20005;-93
2022/10/20 09:31:53;;;;;;;24.20;21.73;;;22.90;99.90;;;;;;6160751;23;20005;-93
2022/10/20 09:34:29;;;;;;;23.05;21.02;;;23.00;99.90;;;;;;6162441;23;20012;-93
2022/10/20 09:37:05;;;;;;;22.45;20.55;;;23.00;99.90;;;;;;6165711;23;20009;-94
2022/10/20 09:39:49;;;;;;;23.27;21.02;;;23.10;99.90;;;;;;6165882;23;20008;-92
2022/10/20 09:42:22;;;;;;;24.50;21.50;;;23.10;99.90;;;;;;6165686;23;20005;-94
2022/10/20 09:44:59;;;;;;;23.50;21.55;;;23.40;99.90;;;;;;6165649;23;20276;-94
2022/10/20 09:47:26;;;;;;;24.95;22.70;;;23.30;99.90;;;;;;6165725;23;20088;-92
2022/10/20 09:50:00;;;;;;;23.77;21.77;;;23.40;99.90;;;;;;6165495;23;20079;-94
2022/10/20 09:53:01;;;;;;;23.77;21.67;;;23.20;99.90;;;;;;6171101;23;20004;-94
2022/10/20 10:02:01;;;;;;;24.35;22.08;;;23.00;99.90;;;;;;6252810;23;20038;-92
2022/10/20 10:04:36;;;;;;;23.70;21.83;;;23.00;99.90;;;;;;6220415;23;20070;-92
2022/10/20 10:07:19;;;;;;;24.00;21.90;;;23.10;99.90;;;;;;6220255;23;20056;-92
2022/10/20 10:09:57;;;;;;;25.13;22.92;;;23.10;99.90;;;;;;6195218;23;20047;-94
2022/10/20 10:12:26;;;;;;;22.63;20.80;;;23.30;99.90;;;;;;6220357;23;20088;-91
2022/10/20 10:14:58;;;;;;;23.98;21.55;;;23.30;99.90;;;;;;6195172;23;20015;-92
2022/10/20 10:17:31;;;;;;;23.52;21.27;;;23.40;99.90;;;;;;6220232;23;20346;-92
2022/10/20 10:19:59;;;;;;;23.23;21.17;;;23.40;99.90;;;;;;6220186;23;20019;-93
2022/10/20 10:22:26;;;;;;;25.58;23.25;;;23.60;99.90;;;;;;6195167;23;20000;-93
2022/10/20 10:24:54;;;;;;;23.45;21.30;;;23.60;99.90;;;;;;6221643;23;20020;-93
2022/10/20 10:27:30;;;;;;;24.48;22.13;;;23.40;99.90;;;;;;6197286;23;20012;-93
2022/10/20 10:30:28;;;;;;;24.08;21.70;;;23.50;99.90;;;;;;6222253;23;20012;-92
2022/10/20 10:32:55;;;;;;;23.67;21.58;;;23.40;99.90;;;;;;6183949;23;20392;-93
2022/10/20 10:35:26;;;;;;;24.25;21.98;;;23.40;99.90;;;;;;6198304;23;20027;-93
2022/10/20 10:37:54;;;;;;;22.83;20.65;;;23.50;99.90;;;;;;6223504;23;20353;-92
2022/10/20 10:40:30;;;;;;;23.05;21.05;;;23.50;99.90;;;;;;6197219;23;20007;-92
2022/10/20 10:43:14;;;;;;;21.70;19.88;;;23.60;99.90;;;;;;6197990;23;20008;-93
2022/10/20 10:45:51;;;;;;;22.63;20.52;;;23.70;99.90;;;;;;6196961;23;20445;-93
2022/10/20 10:48:26;;;;;;;22.23;20.25;;;23.50;99.90;;;;;;6197140;23;20011;-92
2022/10/20 10:50:57;;;;;;;21.02;19.42;;;23.50;99.90;;;;;;6222226;23;20346;-92
2022/10/20 10:53:30;;;;;;;22.33;20.27;;;23.40;99.90;;;;;;6222030;23;20008;-92
2022/10/20 10:56:15;;;;;;;21.15;19.45;;;23.40;99.90;;;;;;6196578;23;20111;-92
2022/10/20 10:58:49;;;;;;;21.15;19.40;;;23.40;99.90;;;;;;6196583;23;20388;-92
2022/10/20 11:02:08;;;;;;;21.35;19.55;;;23.30;99.90;;;;;;6197463;23;20004;-93
2022/10/20 11:04:57;;;;;;;21.88;19.77;;;23.30;99.90;;;;;;6137572;23;20446;-91
2022/10/20 11:07:46;;;;;;;22.30;20.27;;;23.40;99.90;;;;;;6221961;23;20008;-91
2022/10/20 11:10:24;;;;;;;22.42;20.67;;;23.20;99.90;;;;;;6222480;23;20028;-91
2022/10/20 11:13:15;;;;;;;21.40;19.90;;;23.10;99.90;;;;;;6197051;23;20011;-92
2022/10/20 11:16:23;;;;;;;21.73;20.02;;;23.40;99.90;;;;;;6196786;23;20098;-92
2022/10/20 11:19:18;;;;;;;22.98;20.90;;;23.40;99.90;;;;;;6073665;23;20017;-93
2022/10/20 11:22:03;;;;;;;21.67;19.98;;;23.20;99.90;;;;;;6073416;23;20024;-92
2022/10/20 11:25:06;;;;;;;20.92;19.33;;;23.10;99.90;;;;;;6073391;23;20026;-93
2022/10/20 11:27:36;;;;;;;21.73;20.02;;;23.10;99.90;;;;;;6073471;23;20054;-93
2022/10/20 11:30:14;;;;;;;20.88;19.27;;;23.10;99.90;;;;;;6073494;23;20014;-94
2022/10/20 11:32:46;;;;;;;21.23;19.52;;;23.10;99.90;;;;;;6049731;23;20011;-93
2022/10/20 11:35:27;;;;;;;21.08;19.48;;;23.20;99.90;;;;;;6073126;23;20499;-92
2022/10/20 11:38:18;;;;;;;20.73;19.00;;;23.20;99.90;;;;;;6073540;23;20068;-92
2022/10/20 11:40:56;;;;;;;21.67;19.92;;;23.20;99.90;;;;;;6074046;23;20014;-93
2022/10/20 11:43:47;;;;;;;21.25;19.50;;;23.20;99.90;;;;;;6073783;23;20263;-94
2022/10/20 11:46:20;;;;;;;20.83;19.02;;;23.10;99.90;;;;;;6073239;23;20015;-93
2022/10/20 11:48:54;;;;;;;20.35;18.92;;;23.20;99.90;;;;;;6074194;23;20010;-91
2022/10/20 11:51:30;;;;;;;21.42;19.40;;;23.30;99.90;;;;;;6074724;23;20106;-93
2022/10/20 11:54:17;;;;;;;19.52;18.15;;;23.20;99.90;;;;;;6073578;23;20035;-93
2022/10/20 11:57:25;;;;;;;20.30;18.77;;;23.10;99.90;;;;;;6197119;23;20012;-94
2022/10/20 12:00:23;;;;;;;20.55;18.90;;;23.30;99.90;;;;;;6073537;23;20053;-93
2022/10/20 12:02:54;;;;;;;21.73;19.73;;;23.40;99.90;;;;;;6098238;23;20013;-94
2022/10/20 12:05:42;;;;;;;20.23;18.85;;;23.10;99.90;;;;;;6074186;23;20018;-94
2022/10/20 12:08:27;;;;;;;24.65;22.52;;;23.00;99.90;;;;;;6074213;23;20011;-93
2022/10/20 12:11:02;;;;;;;22.60;20.70;;;23.00;99.90;;;;;;6073579;23;20010;-93
2022/10/20 12:13:47;;;;;;;21.35;19.35;;;23.00;99.90;;;;;;6073443;23;20021;-93
2022/10/20 12:16:59;;;;;;;22.17;20.20;;;23.20;99.90;;;;;;6072926;23;20444;-93
2022/10/20 12:19:30;;;;;;;22.35;20.38;;;23.40;99.90;;;;;;5964853;23;20011;-94
2022/10/20 12:22:01;;;;;;;21.27;19.27;;;23.20;99.90;;;;;;6012046;23;20019;-92
2022/10/20 12:24:36;;;;;;;21.15;19.42;;;23.10;99.90;;;;;;5988549;23;20026;-93
2022/10/20 12:27:20;;;;;;;21.33;19.65;;;23.10;99.90;;;;;;6012380;23;20012;-93
2022/10/20 12:29:50;;;;;;;21.20;19.55;;;23.20;99.90;;;;;;6037850;23;20016;-94
2022/10/20 12:32:28;;;;;;;21.95;20.25;;;23.20;99.90;;;;;;6131777;23;20009;-92
2022/10/20 12:35:01;;;;;;;21.08;19.58;;;23.10;99.90;;;;;;6107498;23;20312;-93
2022/10/20 12:37:33;;;;;;;23.00;21.02;;;23.00;99.90;;;;;;6132478;23;20014;-93
2022/10/20 12:40:23;;;;;;;21.73;20.10;;;22.90;99.90;;;;;;6133717;23;20093;-92
2022/10/20 12:42:53;;;;;;;22.55;20.70;;;23.00;99.90;;;;;;6130876;23;20006;-91
2022/10/20 12:45:26;;;;;;;21.50;20.10;;;23.20;99.90;;;;;;6130973;23;20013;-93
2022/10/20 12:47:59;;;;;;;21.00;19.60;;;23.20;99.90;;;;;;6106474;23;20005;-93
2022/10/20 12:50:40;;;;;;;21.50;19.80;;;23.20;99.90;;;;;;6106663;23;20014;-93
2022/10/20 12:53:25;;;;;;;21.25;19.85;;;23.10;99.90;;;;;;6106403;23;20009;-91
2022/10/20 12:56:10;;;;;;;21.83;20.27;;;23.10;99.90;;;;;;6158244;23;20054;-93
2022/10/20 12:59:20;;;;;;;22.75;20.70;;;23.00;99.90;;;;;;6195902;23;20030;-92
2022/10/20 13:02:08;;;;;;;22.20;20.60;;;23.00;99.90;;;;;;6196078;23;20456;-92
2022/10/20 13:04:55;;;;;;;22.10;20.30;;;23.00;99.90;;;;;;6195796;23;20487;-92
2022/10/20 13:07:51;;;;;;;21.80;20.30;;;22.90;99.90;;;;;;6196153;23;20008;-92
2022/10/20 13:10:28;;;;;;;21.55;20.17;;;23.00;99.90;;;;;;6221226;23;20000;-91
2022/10/20 13:13:03;;;;;;;21.95;20.10;;;22.90;99.90;;;;;;6220984;23;20015;-92
2022/10/20 13:15:35;;;;;;;21.20;19.80;;;22.90;99.90;;;;;;6195860;23;20082;-92
2022/10/20 13:18:15;;;;;;;20.83;19.27;;;22.80;99.90;;;;;;6195768;23;20012;-93
2022/10/20 13:21:05;;;;;;;21.77;20.27;;;22.90;99.90;;;;;;6195935;23;20019;-93
2022/10/20 13:23:52;;;;;;;21.88;20.17;;;23.00;99.90;;;;;;6195958;23;20016;-93
2022/10/20 13:26:36;;;;;;;21.75;20.08;;;23.10;99.90;;;;;;6195912;23;20008;-93
2022/10/20 13:29:12;;;;;;;21.45;19.95;;;23.00;99.90;;;;;;6220844;23;20081;-92
2022/10/20 13:31:55;;;;;;;22.10;20.50;;;22.80;99.90;;;;;;6221644;23;20083;-92
2022/10/20 13:34:29;;;;;;;21.63;20.10;;;22.70;99.90;;;;;;6220693;23;20008;-92
2022/10/20 13:37:22;;;;;;;21.67;20.17;;;22.70;99.90;;;;;;6195678;23;20400;-93
2022/10/20 13:40:35;;;;;;;22.08;20.52;;;22.60;99.90;;;;;;6195405;23;20016;-92
2022/10/20 13:43:23;;;;;;;22.13;20.42;;;22.60;99.90;;;;;;6221050;23;20090;-90
2022/10/20 13:46:10;;;;;;;22.10;20.40;;;22.50;99.90;;;;;;6220519;23;20008;-90
2022/10/20 13:49:01;;;;;;;21.65;20.25;;;22.50;99.90;;;;;;6195700;23;20008;-91
2022/10/20 13:51:31;;;;;;;21.98;20.52;;;22.50;99.90;;;;;;6195772;23;20434;-91
2022/10/20 13:54:01;;;;;;;21.35;19.95;;;22.40;99.90;;;;;;6220742;23;20012;-91
2022/10/20 13:56:34;;;;;;;21.60;20.10;;;22.40;99.90;;;;;;6195116;23;20008;-91
2022/10/20 13:59:14;;;;;;;21.67;20.38;;;22.30;99.90;;;;;;6219992;23;20011;-93
2022/10/20 14:01:47;;;;;;;22.25;20.75;;;22.20;99.90;;;;;;6195709;23;20012;-93
2022/10/20 14:04:32;;;;;;;21.58;20.10;;;22.20;99.90;;;;;;6196696;23;20094;-91
2022/10/20 14:07:07;;;;;;;21.90;20.40;;;22.20;99.90;;;;;;6220259;23;20009;-91
2022/10/20 14:09:34;;;;;;;22.15;20.45;;;22.20;99.90;;;;;;6220570;23;20016;-88
2022/10/20 14:12:05;;;;;;;21.88;20.48;;;22.20;99.90;;;;;;6220723;23;20469;-90
2022/10/20 14:14:33;;;;;;;21.52;19.90;;;22.10;99.90;;;;;;6220729;23;20040;-90
2022/10/20 14:17:07;;;;;;;21.33;19.83;;;22.00;99.90;;;;;;6195626;23;20000;-89
2022/10/20 14:19:36;;;;;;;21.38;19.95;;;22.00;99.90;;;;;;6220281;23;20012;-91
2022/10/20 14:22:25;;;;;;;21.88;20.30;;;22.00;99.90;;;;;;6195292;23;20425;-90
2022/10/20 14:24:56;;;;;;;23.30;21.05;;;21.90;99.90;;;;;;6176732;23;20020;-91
2022/10/20 14:27:32;;;;;;;22.77;21.17;;;22.00;99.90;;;;;;6220450;23;20349;-90
2022/10/20 14:30:02;;;;;;;21.45;19.83;;;22.00;99.90;;;;;;6220628;23;20008;-90
2022/10/20 14:32:31;;;;;;;21.77;20.38;;;21.90;99.90;;;;;;6195516;23;20008;-91
2022/10/20 14:35:03;;;;;;;21.70;20.20;;;21.80;99.90;;;;;;6197158;23;20012;-91
2022/10/20 14:37:34;;;;;;;21.70;19.92;;;21.80;99.90;;;;;;6196866;23;20004;-93
2022/10/20 14:40:16;;;;;;;21.42;19.83;;;21.80;99.90;;;;;;6197050;23;20034;-91
2022/10/20 14:42:44;;;;;;;22.52;20.77;;;21.80;99.90;;;;;;6221178;23;20604;-93
2022/10/20 14:45:24;;;;;;;22.17;20.58;;;21.60;99.90;;;;;;6196134;23;20004;-92
2022/10/20 14:47:53;;;;;;;21.40;19.80;;;21.50;99.90;;;;;;6221105;23;20008;-92
2022/10/20 14:50:24;;;;;;;21.27;19.60;;;21.50;99.90;;;;;;6195901;23;20015;-91
2022/10/20 14:52:51;;;;;;;21.33;19.52;;;21.40;99.90;;;;;;6196698;23;20057;-91
2022/10/20 14:55:30;;;;;;;21.25;19.85;;;21.40;99.90;;;;;;6196040;23;20091;-92
2022/10/20 14:58:01;;;;;;;21.13;19.73;;;21.30;99.90;;;;;;6191756;23;20020;-93
2022/10/20 15:00:34;;;;;;;22.02;20.20;;;21.20;99.90;;;;;;6190959;23;20013;-94
2022/10/20 15:03:05;;;;;;;21.10;19.50;;;21.20;99.90;;;;;;6191286;23;20001;-93
2022/10/20 15:05:39;;;;;;;21.73;19.90;;;21.10;99.90;;;;;;6191457;23;20501;-94
2022/10/20 15:08:19;;;;;;;20.25;18.75;;;21.10;99.90;;;;;;6215898;23;20391;-94
2022/10/20 15:10:48;;;;;;;20.70;19.40;;;21.10;99.90;;;;;;6191253;23;20013;-93
2022/10/20 15:13:31;;;;;;;20.58;18.95;;;21.00;99.90;;;;;;6193168;23;20347;-92
2022/10/20 15:16:00;;;;;;;19.92;18.58;;;20.90;99.90;;;;;;6193188;23;20449;-92
2022/10/20 15:18:27;;;;;;;19.80;18.40;;;20.90;99.90;;;;;;6195521;23;20014;-93
2022/10/20 15:20:55;;;;;;;19.75;18.25;;;20.90;99.90;;;;;;6219084;23;20005;-90
2022/10/20 15:23:28;;;;;;;20.50;18.50;;;20.80;99.90;;;;;;6193761;23;20454;-90
2022/10/20 15:26:01;;;;;;;18.92;17.63;;;20.70;99.90;;;;;;6217458;23;20084;-91
2022/10/20 15:28:47;;;;;;;19.23;17.73;;;20.60;99.90;;;;;;6217916;23;20012;-90
2022/10/20 15:31:33;;;;;;;19.50;18.00;;;20.60;99.90;;;;;;6217809;23;20009;-90
2022/10/20 15:33:59;;;;;;;19.42;18.02;;;20.50;99.90;;;;;;6192391;23;20009;-92
2022/10/20 15:36:35;;;;;;;19.70;17.83;;;20.40;99.90;;;;;;6192654;23;20000;-92
2022/10/20 15:39:03;;;;;;;19.77;18.17;;;20.20;99.90;;;;;;6217657;23;20009;-91
2022/10/20 15:41:33;;;;;;;19.80;17.95;;;20.20;99.90;;;;;;6192603;23;20005;-91
2022/10/20 15:44:13;;;;;;;18.90;17.58;;;20.10;99.90;;;;;;6217673;23;20102;-91
2022/10/20 15:46:42;;;;;;;18.48;17.05;;;20.00;99.90;;;;;;6217137;23;20004;-92
2022/10/20 15:49:08;;;;;;;18.13;16.73;;;19.90;99.90;;;;;;6192063;23;20039;-91
2022/10/20 15:51:38;;;;;;;19.52;17.98;;;19.90;99.90;;;;;;6192286;23;20426;-92
2022/10/20 15:54:06;;;;;;;18.75;17.25;;;19.80;99.90;;;;;;6191843;23;20458;-91
2022/10/20 15:56:34;;;;;;;18.38;17.08;;;19.80;99.90;;;;;;6194541;23;20104;-91
2022/10/20 15:59:01;;;;;;;18.38;16.98;;;19.70;99.90;;;;;;6221686;23;20099;-92
2022/10/20 16:01:27;;;;;;;19.27;17.60;;;19.70;99.90;;;;;;6197386;23;20030;-93
2022/10/20 16:04:13;;;;;;;18.25;16.65;;;19.60;99.90;;;;;;6197138;23;20027;-91
2022/10/20 16:06:41;;;;;;;18.58;16.70;;;19.50;99.90;;;;;;6222018;23;20015;-92
2022/10/20 16:09:07;;;;;;;18.70;17.08;;;19.50;99.90;;;;;;6197421;23;20087;-91
2022/10/20 16:11:34;;;;;;;18.50;16.80;;;19.40;99.90;;;;;;6197424;23;20008;-91
2022/10/20 16:14:01;;;;;;;18.55;17.15;;;19.40;99.90;;;;;;6197339;23;20342;-91
2022/10/20 16:16:28;;;;;;;18.42;16.88;;;19.30;99.90;;;;;;6197110;23;20011;-91
2022/10/20 16:18:54;;;;;;;17.67;16.25;;;19.30;99.90;;;;;;6196996;23;20011;-91
2022/10/20 16:21:21;;;;;;;17.73;16.23;;;19.20;99.90;;;;;;6197424;23;20087;-91
2022/10/20 16:23:56;;;;;;;20.27;17.33;;;19.20;99.90;;;;;;6193977;23;20040;-94
2022/10/20 16:26:26;;;;;;;18.20;16.80;;;19.10;99.90;;;;;;6217914;23;20430;-94
2022/10/20 16:28:53;;;;;;;18.23;16.75;;;19.10;99.90;;;;;;6216250;23;20009;-92
2022/10/20 16:31:23;;;;;;;19.08;17.20;;;19.10;99.90;;;;;;6192184;23;20015;-94
2022/10/20 16:33:56;;;;;;;18.00;16.60;;;19.10;99.90;;;;;;6192245;23;20009;-94
2022/10/20 16:37:06;;;;;;;18.55;16.70;;;19.00;99.90;;;;;;6193045;23;20009;-94
2022/10/20 16:39:44;;;;;;;18.38;16.67;;;19.00;99.90;;;;;;6104581;23;20385;-93
2022/10/20 16:42:32;;;;;;;18.10;16.70;;;18.90;99.90;;;;;;6102444;23;20021;-94
2022/10/20 16:44:59;;;;;;;18.02;16.55;;;18.90;99.90;;;;;;6102243;23;20396;-92
2022/10/20 16:47:26;;;;;;;17.95;16.42;;;18.80;99.90;;;;;;6101511;23;20053;-94
2022/10/20 16:49:53;;;;;;;18.17;16.77;;;18.80;99.90;;;;;;6126823;23;20381;-93
2022/10/20 16:52:22;;;;;;;17.50;16.17;;;18.70;99.90;;;;;;6077937;23;20413;-94
2022/10/20 16:57:47;;;;;;;18.15;16.58;;;18.60;99.90;;;;;;6246876;22;20028;-92
2022/10/20 17:00:14;;;;;;;18.08;16.25;;;18.50;99.90;;;;;;6196150;22;20008;-94
2022/10/20 17:02:42;;;;;;;18.90;17.20;;;18.60;99.90;;;;;;6196065;23;20008;-93
2022/10/20 17:05:09;;;;;;;18.65;16.85;;;18.60;99.90;;;;;;6195912;23;20023;-91
2022/10/20 17:07:36;;;;;;;18.48;16.70;;;18.60;99.90;;;;;;6195913;23;20011;-92
2022/10/20 17:10:03;;;;;;;19.75;16.85;;;18.60;99.90;;;;;;6220971;23;20100;-92
2022/10/20 17:12:29;;;;;;;20.17;18.27;;;18.60;99.90;;;;;;6195729;23;20000;-93
2022/10/20 17:14:59;;;;;;;19.58;17.52;;;18.50;99.90;;;;;;6220881;23;20079;-92
2022/10/20 17:17:25;;;;;;;19.40;17.63;;;18.50;99.90;;;;;;6195756;23;20442;-90
2022/10/20 17:19:52;;;;;;;19.85;18.08;;;18.40;99.90;;;;;;6195687;23;20079;-90
2022/10/20 17:22:19;;;;;;;23.30;20.92;;;18.40;99.90;;;;;;6195868;23;20004;-91
2022/10/20 17:24:48;;;;;;;25.55;22.05;;;18.40;99.90;;;;;;6195352;22;20453;-91
2022/10/20 17:27:14;;;;;;;28.67;20.77;;;18.30;99.90;;;;;;6195653;23;20035;-91
2022/10/20 17:29:41;;;;;;;21.38;19.33;;;18.30;99.90;;;;;;6195761;23;20008;-90
2022/10/20 17:32:07;;;;;;;21.42;19.42;;;18.30;99.90;;;;;;6195493;23;20009;-92
2022/10/20 17:34:34;;;;;;;20.95;18.80;;;18.20;99.90;;;;;;6195270;23;20019;-90
2022/10/20 17:37:01;;;;;;;21.58;19.45;;;18.20;99.90;;;;;;6195891;23;20008;-90
2022/10/20 17:39:27;;;;;;;21.52;19.42;;;18.20;99.90;;;;;;6195551;23;20011;-92
2022/10/20 17:41:54;;;;;;;25.00;20.13;;;18.20;99.90;;;;;;6195484;23;20005;-92
2022/10/20 17:44:21;;;;;;;25.50;19.90;;;18.20;99.90;;;;;;6195457;23;20012;-90
2022/10/20 17:46:47;;;;;;;22.00;19.30;;;18.10;99.90;;;;;;6195172;23;20008;-90
2022/10/20 17:49:13;;;;;;;22.92;20.42;;;18.00;99.90;;;;;;6195287;23;20418;-90
2022/10/20 17:51:42;;;;;;;21.13;19.23;;;18.00;99.90;;;;;;6195301;23;20009;-91
2022/10/20 17:54:12;;;;;;;21.85;19.60;;;18.00;99.90;;;;;;6195345;23;20011;-90
2022/10/20 17:56:39;;;;;;;22.15;20.05;;;17.90;99.90;;;;;;6190360;23;20067;-90
2022/10/20 17:59:07;;;;;;;22.02;19.92;;;17.90;99.90;;;;;;6191363;23;20015;-92
2022/10/20 18:01:39;;;;;;;21.60;19.80;;;17.90;99.90;;;;;;6190428;23;20005;-91
2022/10/20 18:04:11;;;;;;;22.73;20.40;;;17.90;99.90;;;;;;6190144;23;20020;-90
2022/10/20 18:06:39;;;;;;;22.67;20.50;;;17.80;99.90;;;;;;6190164;23;20008;-92
2022/10/20 18:09:12;;;;;;;22.63;20.27;;;17.70;99.90;;;;;;6190353;23;20040;-92
2022/10/20 18:12:06;;;;;;;25.00;21.48;;;17.70;99.90;;;;;;6190871;23;20087;-94
2022/10/20 18:14:34;;;;;;;24.50;21.83;;;17.70;99.90;;;;;;6192098;23;20012;-93
2022/10/20 18:17:02;;;;;;;25.45;22.95;;;17.60;99.90;;;;;;6190560;23;20008;-93
2022/10/20 18:19:28;;;;;;;27.48;23.05;;;17.60;99.90;;;;;;6190118;23;20012;-89
2022/10/20 18:21:55;;;;;;;25.05;22.58;;;17.60;99.90;;;;;;6190087;23;20015;-89
2022/10/20 18:24:25;;;;;;;24.60;22.00;;;17.60;99.90;;;;;;6190152;23;20024;-91
2022/10/20 18:26:54;;;;;;;29.73;22.23;;;17.50;99.90;;;;;;6189987;23;20338;-91
2022/10/20 18:29:21;;;;;;;24.38;21.88;;;17.50;99.90;;;;;;6190084;23;20063;-89
2022/10/20 18:31:51;;;;;;;24.90;22.25;;;17.50;99.90;;;;;;6190342;23;20032;-91
2022/10/20 18:34:22;;;;;;;26.65;21.75;;;17.50;99.90;;;;;;6190080;23;20008;-90
2022/10/20 18:36:50;;;;;;;25.35;22.05;;;17.40;99.90;;;;;;6190205;23;20012;-89
2022/10/20 18:39:17;;;;;;;26.48;22.85;;;17.40;99.90;;;;;;6190193;23;20000;-91
2022/10/20 18:41:45;;;;;;;31.95;21.85;;;17.40;99.90;;;;;;6190018;23;20009;-92
2022/10/20 18:44:15;;;;;;;25.40;21.80;;;17.30;99.90;;;;;;6190178;23;20803;-91
2022/10/20 18:46:42;;;;;;;22.80;20.50;;;17.30;99.90;;;;;;6192004;23;20031;-90
2022/10/20 18:49:12;;;;;;;26.00;21.60;;;17.30;99.90;;;;;;6191955;23;20012;-91
2022/10/20 18:51:39;;;;;;;27.98;21.20;;;17.30;99.90;;;;;;6192297;23;20012;-90
2022/10/20 18:54:07;;;;;;;27.80;20.80;;;17.20;99.90;;;;;;6192168;23;20008;-92
2022/10/20 18:56:35;;;;;;;28.50;21.60;;;17.30;99.90;;;;;;6161101;23;20028;-92
2022/10/20 18:59:06;;;;;;;25.73;21.35;;;17.30;99.90;;;;;;6136502;23;20092;-91
2022/10/20 19:01:36;;;;;;;27.55;20.92;;;17.20;99.90;;;;;;6161531;23;20032;-90
2022/10/20 19:04:04;;;;;;;26.60;20.52;;;17.20;99.90;;;;;;6136325;23;20044;-91
2022/10/20 19:06:38;;;;;;;29.95;20.75;;;17.20;99.90;;;;;;6161300;23;20021;-91
2022/10/20 19:09:13;;;;;;;29.35;20.52;;;17.20;99.90;;;;;;6136801;23;20105;-91
2022/10/20 19:11:40;;;;;;;29.38;20.92;;;17.20;99.90;;;;;;6163398;23;20009;-91
2022/10/20 19:14:09;;;;;;;25.85;21.08;;;17.10;99.90;;;;;;6136823;23;20479;-92
2022/10/20 19:16:36;;;;;;;26.23;19.60;;;17.10;99.90;;;;;;6161720;23;20009;-93
2022/10/20 19:19:06;;;;;;;28.58;20.45;;;17.10;99.90;;;;;;6136742;23;20008;-92
2022/10/20 19:21:34;;;;;;;27.25;21.48;;;17.10;99.90;;;;;;6160967;23;20090;-92
2022/10/20 19:24:06;;;;;;;33.40;21.10;;;17.10;99.90;;;;;;6167721;23;20020;-92
2022/10/20 19:26:56;;;;;;;35.58;22.15;;;17.00;99.90;;;;;;6191934;23;20091;-91
2022/10/20 19:29:23;;;;;;;31.55;21.08;;;17.00;99.90;;;;;;6187110;23;20431;-92
2022/10/20 19:31:57;;;;;;;31.13;19.70;;;17.00;99.90;;;;;;6186705;23;20020;-90
2022/10/20 19:34:30;;;;;;;30.95;21.17;;;17.00;99.90;;;;;;6211870;23;20017;-92
2022/10/20 19:37:01;;;;;;;32.17;21.42;;;16.90;99.90;;;;;;6186891;23;20009;-91
2022/10/20 19:39:31;;;;;;;32.53;22.13;;;17.00;99.90;;;;;;6186235;23;20009;-90
2022/10/20 19:42:00;;;;;;;28.25;21.50;;;16.90;99.90;;;;;;6187578;23;20304;-91
2022/10/20 19:44:27;;;;;;;33.67;21.38;;;16.90;99.90;;;;;;6211471;23;20092;-91
2022/10/20 19:46:56;;;;;;;35.25;21.85;;;16.90;99.90;;;;;;6211594;23;20390;-91
2022/10/20 19:49:24;;;;;;;30.20;21.17;;;16.80;99.90;;;;;;6186345;23;20009;-90
2022/10/20 19:51:51;;;;;;;34.13;22.00;;;16.80;99.90;;;;;;6211513;23;20001;-90
2022/10/20 19:54:18;;;;;;;38.83;22.48;;;16.80;99.90;;;;;;6211556;23;20040;-92
2022/10/20 19:56:45;;;;;;;33.90;21.60;;;16.80;99.90;;;;;;6211075;23;20008;-91
2022/10/20 19:59:11;;;;;;;34.03;22.38;;;16.70;99.90;;;;;;6211213;23;20040;-90
2022/10/20 20:01:38;;;;;;;35.42;22.25;;;16.70;99.90;;;;;;6211839;23;20001;-92
2022/10/20 20:04:06;;;;;;;44.80;22.05;;;16.70;99.90;;;;;;6186315;23;20021;-92
2022/10/20 20:06:34;;;;;;;34.30;22.45;;;16.70;99.90;;;;;;6211540;23;20005;-91
2022/10/20 20:09:04;;;;;;;32.00;21.80;;;16.70;99.90;;;;;;6211227;23;20009;-92
2022/10/20 20:11:36;;;;;;;36.90;21.33;;;16.70;99.90;;;;;;6211233;23;20008;-90
2022/10/20 20:14:17;;;;;;;31.83;21.08;;;16.70;99.90;;;;;;6186479;23;20009;-93
2022/10/20 20:16:44;;;;;;;32.65;21.55;;;16.70;99.90;;;;;;6186171;23;20075;-91
2022/10/20 20:19:12;;;;;;;32.88;21.20;;;16.60;99.90;;;;;;6186153;23;20144;-91
2022/10/20 20:21:39;;;;;;;34.55;19.75;;;16.60;99.90;;;;;;6186133;23;20013;-90
2022/10/20 20:24:06;;;;;;;32.97;18.75;;;16.60;99.90;;;;;;6210873;23;20092;-91
2022/10/20 20:26:35;;;;;;;31.08;19.20;;;16.60;99.90;;;;;;6186181;23;20005;-91
2022/10/20 20:29:09;;;;;;;30.75;18.40;;;16.60;99.90;;;;;;6161223;23;20013;-93
2022/10/20 20:31:36;;;;;;;32.97;21.55;;;16.60;99.90;;;;;;6211024;23;20013;-93
2022/10/20 20:34:02;;;;;;;31.55;19.00;;;16.60;99.90;;;;;;6186150;23;20005;-92
2022/10/20 20:36:29;;;;;;;31.23;19.48;;;16.60;99.90;;;;;;6210970;23;20056;-91
2022/10/20 20:38:58;;;;;;;27.73;18.77;;;16.60;99.90;;;;;;6211172;23;20389;-91
2022/10/20 20:41:28;;;;;;;29.45;18.90;;;16.50;99.90;;;;;;6186117;23;20005;-92
2022/10/20 20:43:56;;;;;;;29.67;18.70;;;16.50;99.90;;;;;;6185974;23;20012;-93